Terminal Aerodrome Forecast
Issued by NWS

Home | Current Version | Previous Version | Text Only | Print | Product List | Glossary On
Versions: 1 2 3 4 5 6 7 8 9 10 11 12 13 14 15 16 17 18 19 20 21 22 23 24
000
FTUS41 KILN 232300
TAFLUK
TAF
KLUK 232335Z 2400/2424 04005KT P6SM VCSH SCT025 BKN090
      TEMPO 2401/2403 4SM -SHRA BKN012 OVC025
     FM240300 04006KT P6SM OVC020
      TEMPO 2411/2414 BKN035
     FM241400 03011KT P6SM SCT040
      TEMPO 2418/2422 BKN040
     FM242300 00000KT P6SM SCT040=

USA.gov is the U.S. government's official web portal to all federal, state and local government web resources and services.